createdAt,value
2018-11-03T00:01:40.466Z,0.70
2018-11-03T00:04:08.939Z,0.60
2018-11-03T00:06:37.550Z,0.50
2018-11-03T00:09:08.840Z,0.70
2018-11-03T00:11:37.723Z,0.63
2018-11-03T00:14:06.395Z,0.70
2018-11-03T00:16:35.958Z,0.50
2018-11-03T00:19:04.484Z,1.07
2018-11-03T00:21:33.240Z,0.40
2018-11-03T00:24:01.799Z,0.60
2018-11-03T00:26:30.558Z,0.63
2018-11-03T00:28:59.090Z,0.77
2018-11-03T00:31:27.645Z,0.57
2018-11-03T00:33:56.232Z,0.67
2018-11-03T00:36:24.706Z,0.77
2018-11-03T00:38:53.466Z,0.70
2018-11-03T00:41:21.955Z,0.63
2018-11-03T00:43:50.614Z,0.80
2018-11-03T00:46:19.303Z,0.67
2018-11-03T00:48:47.838Z,0.40
2018-11-03T00:51:16.343Z,0.70
2018-11-03T00:53:44.819Z,0.43
2018-11-03T00:56:13.468Z,0.53
2018-11-03T00:58:42.015Z,0.50
2018-11-03T01:01:10.702Z,0.50
2018-11-03T01:03:39.281Z,0.83
2018-11-03T01:06:07.888Z,0.40
2018-11-03T01:08:36.435Z,0.60
2018-11-03T01:11:05.295Z,0.60
2018-11-03T01:13:33.971Z,0.77
2018-11-03T01:16:02.519Z,0.50
2018-11-03T01:18:31.333Z,0.60
2018-11-03T01:20:59.976Z,0.83
2018-11-03T01:23:28.767Z,0.57
2018-11-03T01:25:57.465Z,0.60
2018-11-03T01:28:26.067Z,0.43
2018-11-03T01:30:54.543Z,0.80
2018-11-03T01:33:23.111Z,0.57
2018-11-03T01:35:51.710Z,0.60
2018-11-03T01:38:20.260Z,0.70
2018-11-03T01:40:49.054Z,0.47
2018-11-03T01:43:17.663Z,0.77
2018-11-03T01:45:46.607Z,0.73
2018-11-03T01:48:15.351Z,0.80
2018-11-03T01:50:44.031Z,0.60
2018-11-03T01:53:12.526Z,0.53
2018-11-03T01:55:41.064Z,0.70
2018-11-03T01:58:09.790Z,1.10
2018-11-03T02:00:38.321Z,0.60
2018-11-03T02:03:07.127Z,0.70
2018-11-03T02:05:35.612Z,0.80
2018-11-03T02:08:04.276Z,0.40
2018-11-03T02:10:32.802Z,0.50
2018-11-03T02:13:01.352Z,0.70
2018-11-03T02:15:30.004Z,0.67
2018-11-03T02:17:58.450Z,0.90
2018-11-03T02:20:27.429Z,0.73
2018-11-03T02:22:56.055Z,0.40
2018-11-03T02:25:24.614Z,0.50
2018-11-03T02:27:53.155Z,0.80
2018-11-03T02:30:21.673Z,0.63
2018-11-03T02:32:50.260Z,0.60
2018-11-03T02:35:18.734Z,0.97
2018-11-03T02:37:47.539Z,0.40
2018-11-03T02:40:16.162Z,0.30
2018-11-03T02:42:44.815Z,0.60
2018-11-03T02:45:13.387Z,0.50
2018-11-03T02:47:42.368Z,0.77
2018-11-03T02:50:13.238Z,0.80
2018-11-03T02:52:42.144Z,0.70
2018-11-03T02:55:10.934Z,0.77
2018-11-03T02:57:39.858Z,0.63
2018-11-03T03:00:09.550Z,0.87
2018-11-03T03:02:38.045Z,0.70
2018-11-03T03:05:07.920Z,0.87
2018-11-03T03:07:36.467Z,0.40
2018-11-03T03:10:06.491Z,0.53
2018-11-03T03:12:35.522Z,0.40
2018-11-03T03:15:04.583Z,0.60
2018-11-03T03:17:33.101Z,0.50
2018-11-03T03:20:01.881Z,0.47
2018-11-03T03:22:30.365Z,0.80
2018-11-03T03:24:58.986Z,0.67
2018-11-03T03:27:27.538Z,0.47
2018-11-03T03:29:56.145Z,0.40
2018-11-03T03:32:24.835Z,0.70
2018-11-03T03:34:53.509Z,0.50
2018-11-03T03:37:22.320Z,0.60
2018-11-03T03:39:50.895Z,0.37
2018-11-03T03:42:19.652Z,0.60
2018-11-03T03:44:48.238Z,0.70
2018-11-03T03:47:16.862Z,0.50
2018-11-03T03:49:46.219Z,0.60
2018-11-03T03:52:14.694Z,0.77
2018-11-03T03:54:43.392Z,0.47
2018-11-03T03:57:11.868Z,0.37
2018-11-03T03:59:40.683Z,0.53
2018-11-03T04:02:09.167Z,0.80
2018-11-03T04:04:37.935Z,0.60
2018-11-03T04:07:06.855Z,0.50
2018-11-03T04:09:35.442Z,0.77
2018-11-03T04:12:04.072Z,0.40
2018-11-03T04:14:32.654Z,0.63
2018-11-03T04:17:01.591Z,0.50
2018-11-03T04:19:30.127Z,0.40
2018-11-03T04:21:58.823Z,0.60
2018-11-03T04:24:27.293Z,0.57
2018-11-03T04:26:55.903Z,0.80
2018-11-03T04:29:24.457Z,0.67
2018-11-03T04:31:52.987Z,0.53
2018-11-03T04:34:21.627Z,0.80
2018-11-03T04:36:50.087Z,0.63
2018-11-03T04:39:18.769Z,0.60
2018-11-03T04:41:47.246Z,0.63
2018-11-03T04:44:15.807Z,0.40
2018-11-03T04:46:44.358Z,0.60
2018-11-03T04:49:13.207Z,0.50
2018-11-03T04:51:41.854Z,0.53
2018-11-03T04:54:10.427Z,0.50
2018-11-03T04:56:39.262Z,0.70
2018-11-03T04:59:07.740Z,0.50
2018-11-03T05:01:36.423Z,0.43
2018-11-03T05:04:05.286Z,0.70
2018-11-03T05:06:33.778Z,0.80
2018-11-03T05:09:02.501Z,0.40
2018-11-03T05:11:31.043Z,0.60
2018-11-03T05:13:59.738Z,0.50
2018-11-03T05:16:28.252Z,0.30
2018-11-03T05:18:57.013Z,0.70
2018-11-03T05:21:25.613Z,0.30
2018-11-03T05:23:54.167Z,0.33
2018-11-03T05:26:22.695Z,0.50
2018-11-03T05:28:51.344Z,0.70
2018-11-03T05:31:20.112Z,0.80
2018-11-03T05:33:48.551Z,0.50
2018-11-03T05:36:17.405Z,0.70
2018-11-03T05:38:45.854Z,0.60
2018-11-03T05:41:14.447Z,0.70
2018-11-03T05:43:42.922Z,0.60
2018-11-03T05:46:11.402Z,0.60
2018-11-03T05:48:40.791Z,0.50
2018-11-03T05:51:09.336Z,0.67
2018-11-03T05:53:38.007Z,0.40
2018-11-03T05:56:06.497Z,0.87
2018-11-03T05:58:35.068Z,0.30
2018-11-03T06:01:03.664Z,0.40
2018-11-03T06:03:32.188Z,0.70
2018-11-03T06:06:01.015Z,0.27
2018-11-03T06:08:29.514Z,0.60
2018-11-03T06:10:58.306Z,0.50
2018-11-03T06:13:26.931Z,0.67
2018-11-03T06:15:55.589Z,0.57
2018-11-03T06:18:24.156Z,0.40
2018-11-03T06:20:52.858Z,0.60
2018-11-03T06:23:21.392Z,0.40
2018-11-03T06:25:49.867Z,0.53
2018-11-03T06:28:18.723Z,0.83
2018-11-03T06:30:47.285Z,0.40
2018-11-03T06:33:15.810Z,0.97
2018-11-03T06:35:44.387Z,0.37
2018-11-03T06:38:12.874Z,0.67
2018-11-03T06:40:42.067Z,0.17
2018-11-03T06:43:10.542Z,0.40
2018-11-03T06:45:39.399Z,0.40
2018-11-03T06:48:07.992Z,0.60
2018-11-03T06:50:36.754Z,0.70
2018-11-03T06:53:05.594Z,0.40
2018-11-03T06:55:34.310Z,0.40
2018-11-03T06:58:03.095Z,0.50
2018-11-03T07:00:31.626Z,0.67
2018-11-03T07:03:00.913Z,0.50
2018-11-03T07:05:29.557Z,0.60
2018-11-03T07:07:58.930Z,0.30
2018-11-03T07:10:27.718Z,0.40
2018-11-03T07:12:58.469Z,0.87
2018-11-03T07:15:29.598Z,0.93
2018-11-03T07:17:58.179Z,0.97
2018-11-03T07:20:26.758Z,0.80
2018-11-03T07:22:56.539Z,0.63
2018-11-03T07:25:25.156Z,0.60
2018-11-03T07:27:53.953Z,0.60
2018-11-03T07:30:22.581Z,0.53
2018-11-03T07:32:51.458Z,0.60
2018-11-03T07:35:20.094Z,0.60
2018-11-03T07:37:48.670Z,1.10
2018-11-03T07:40:17.217Z,1.13
2018-11-03T07:42:45.778Z,0.37
2018-11-03T07:45:14.387Z,0.90
2018-11-03T07:47:42.870Z,1.00
2018-11-03T07:50:12.724Z,0.73
2018-11-03T07:52:42.015Z,1.23
2018-11-03T07:55:12.093Z,0.70
2018-11-03T07:57:40.890Z,0.77
2018-11-03T08:00:12.032Z,0.73
2018-11-03T08:02:40.550Z,0.90
2018-11-03T08:05:10.455Z,0.83
2018-11-03T08:07:39.637Z,0.90
2018-11-03T08:10:09.867Z,0.87
2018-11-03T08:12:38.462Z,0.70
2018-11-03T08:15:08.120Z,1.00
2018-11-03T08:17:36.714Z,0.50
2018-11-03T08:20:06.843Z,0.67
2018-11-03T08:22:35.766Z,0.50
2018-11-03T08:25:04.638Z,0.90
2018-11-03T08:27:33.112Z,0.73
2018-11-03T08:30:01.741Z,0.80
2018-11-03T08:32:30.258Z,0.80
2018-11-03T08:34:58.752Z,0.63
2018-11-03T08:37:27.554Z,0.70
2018-11-03T08:39:56.023Z,0.90
2018-11-03T08:42:24.922Z,0.70
2018-11-03T08:44:53.523Z,0.53
2018-11-03T08:47:22.191Z,0.53
2018-11-03T08:49:50.757Z,0.70
2018-11-03T08:52:19.450Z,0.73
2018-11-03T08:54:48.031Z,1.00
2018-11-03T08:57:16.624Z,0.80
2018-11-03T08:59:45.649Z,0.47
2018-11-03T09:02:14.231Z,0.87
2018-11-03T09:04:42.960Z,0.60
2018-11-03T09:07:11.585Z,0.40
2018-11-03T09:09:40.145Z,0.50
2018-11-03T09:12:08.651Z,0.70
2018-11-03T09:14:37.242Z,0.50
2018-11-03T09:17:06.123Z,0.83
2018-11-03T09:19:34.582Z,0.60
2018-11-03T09:22:03.518Z,0.53
2018-11-03T09:24:32.047Z,0.60
2018-11-03T09:27:00.638Z,0.80
2018-11-03T09:29:29.263Z,0.57
2018-11-03T09:31:57.915Z,0.73
2018-11-03T09:34:28.428Z,0.83
2018-11-03T09:36:56.926Z,0.77
2018-11-03T09:39:25.631Z,0.60
2018-11-03T09:41:54.214Z,0.40
2018-11-03T09:44:23.769Z,0.57
2018-11-03T09:46:52.396Z,0.60
2018-11-03T09:49:21.099Z,0.80
2018-11-03T09:51:49.726Z,0.43
2018-11-03T09:54:18.943Z,0.83
2018-11-03T09:56:47.595Z,0.70
2018-11-03T09:59:16.107Z,0.70
2018-11-03T10:01:44.689Z,0.70
2018-11-03T10:04:13.159Z,0.80
2018-11-03T10:06:41.681Z,0.53
2018-11-03T10:09:10.260Z,0.53
2018-11-03T10:11:38.759Z,0.90
2018-11-03T10:14:07.359Z,0.73
2018-11-03T10:16:35.976Z,0.50
2018-11-03T10:19:04.622Z,0.80
2018-11-03T10:21:33.230Z,0.63
2018-11-03T10:24:02.632Z,0.80
2018-11-03T10:26:31.372Z,0.63
2018-11-03T10:29:00.022Z,0.90
2018-11-03T10:31:28.486Z,0.77
2018-11-03T10:33:57.136Z,0.47
2018-11-03T10:36:25.730Z,0.60
2018-11-03T10:38:54.255Z,0.73
2018-11-03T10:41:22.946Z,0.50
2018-11-03T10:43:51.567Z,0.70
2018-11-03T10:46:20.459Z,0.83
2018-11-03T10:48:49.015Z,0.67
2018-11-03T10:51:17.600Z,0.50
2018-11-03T10:53:46.249Z,0.60
2018-11-03T10:56:14.748Z,0.50
2018-11-03T10:58:43.426Z,0.60
2018-11-03T11:01:17.228Z,0.40
2018-11-03T11:03:51.179Z,0.70
2018-11-03T11:06:25.131Z,0.53
2018-11-03T11:08:59.063Z,0.83
2018-11-03T11:11:32.742Z,0.80
2018-11-03T11:14:01.262Z,0.90
2018-11-03T11:16:30.032Z,0.70
2018-11-03T11:18:58.403Z,0.60
2018-11-03T11:21:27.088Z,0.60
2018-11-03T11:23:55.720Z,0.47
2018-11-03T11:26:24.254Z,0.50
2018-11-03T11:28:52.778Z,0.73
2018-11-03T11:31:21.460Z,0.50
2018-11-03T11:33:51.210Z,0.60
2018-11-03T11:36:19.739Z,0.60
2018-11-03T11:38:49.106Z,0.50
2018-11-03T11:41:17.715Z,0.40
2018-11-03T11:43:46.515Z,0.80
2018-11-03T11:46:15.159Z,1.07
2018-11-03T11:48:43.869Z,0.80
2018-11-03T11:51:12.421Z,0.73
2018-11-03T11:53:40.962Z,0.73
2018-11-03T11:56:09.600Z,0.40
2018-11-03T11:58:38.072Z,0.60
2018-11-03T12:01:06.870Z,0.93
2018-11-03T12:03:35.359Z,0.53
2018-11-03T12:06:04.184Z,0.70
2018-11-03T12:08:32.808Z,0.80
2018-11-03T12:11:01.439Z,0.57
2018-11-03T12:13:30.027Z,0.70
2018-11-03T12:15:58.517Z,0.63
2018-11-03T12:18:27.350Z,0.70
2018-11-03T12:20:55.888Z,0.30
2018-11-03T12:23:24.743Z,0.67
2018-11-03T12:25:53.356Z,0.70
2018-11-03T12:28:21.926Z,0.77
2018-11-03T12:30:50.467Z,0.60
2018-11-03T12:33:18.960Z,0.87
2018-11-03T12:35:47.723Z,0.83
2018-11-03T12:38:17.083Z,0.83
2018-11-03T12:40:45.992Z,0.70
2018-11-03T12:43:14.414Z,0.93
2018-11-03T12:45:43.039Z,0.70
2018-11-03T12:48:11.574Z,0.77
2018-11-03T12:50:40.139Z,0.93
2018-11-03T12:53:08.670Z,0.90
2018-11-03T12:55:37.222Z,0.47
2018-11-03T12:58:05.879Z,0.63
2018-11-03T13:00:34.432Z,0.70
2018-11-03T13:03:03.275Z,0.70
2018-11-03T13:05:31.759Z,0.50
2018-11-03T13:08:00.480Z,0.70
2018-11-03T13:10:29.022Z,0.80
2018-11-03T13:12:57.503Z,0.70
2018-11-03T13:15:26.282Z,0.50
2018-11-03T13:17:55.382Z,0.63
2018-11-03T13:20:24.234Z,1.10
2018-11-03T13:22:52.833Z,0.50
2018-11-03T13:25:21.587Z,0.60
2018-11-03T13:27:50.062Z,0.87
2018-11-03T13:30:18.527Z,0.63
2018-11-03T13:32:46.980Z,0.90
2018-11-03T13:35:15.460Z,0.67
2018-11-03T13:37:44.084Z,0.67
2018-11-03T13:40:15.388Z,0.60
2018-11-03T13:42:44.584Z,0.80
2018-11-03T13:45:13.019Z,0.60
2018-11-03T13:47:41.794Z,0.80
2018-11-03T13:50:11.482Z,0.60
2018-11-03T13:52:40.666Z,1.07
2018-11-03T13:55:09.688Z,0.90
2018-11-03T13:57:38.452Z,0.70
2018-11-03T14:00:07.919Z,0.40
2018-11-03T14:02:36.712Z,1.40
2018-11-03T14:05:05.620Z,0.63
2018-11-03T14:07:34.238Z,0.60
2018-11-03T14:10:02.802Z,0.90
2018-11-03T14:12:31.315Z,0.70
2018-11-03T14:14:59.999Z,0.80
2018-11-03T14:17:28.487Z,0.53
2018-11-03T14:19:57.235Z,0.60
2018-11-03T14:22:25.687Z,0.80
2018-11-03T14:24:54.234Z,0.70
2018-11-03T14:27:22.766Z,0.90
2018-11-03T14:29:51.293Z,0.60
2018-11-03T14:32:20.040Z,0.80
2018-11-03T14:34:48.583Z,0.90
2018-11-03T14:37:17.508Z,0.83
2018-11-03T14:39:45.990Z,0.90
2018-11-03T14:42:14.510Z,0.80
2018-11-03T14:44:43.009Z,0.63
2018-11-03T14:47:11.503Z,0.90
2018-11-03T14:49:40.325Z,0.70
2018-11-03T14:52:08.826Z,0.57
2018-11-03T14:54:37.678Z,0.67
2018-11-03T14:57:06.355Z,0.77
2018-11-03T14:59:34.989Z,0.70
2018-11-03T15:02:03.499Z,0.77
2018-11-03T15:04:32.383Z,0.90
2018-11-03T15:07:00.974Z,0.70
2018-11-03T15:09:29.454Z,0.77
2018-11-03T15:11:58.191Z,0.73
2018-11-03T15:14:26.680Z,0.70
2018-11-03T15:16:55.219Z,0.80
2018-11-03T15:19:23.706Z,0.83
2018-11-03T15:21:52.187Z,0.70
2018-11-03T15:24:20.818Z,0.87
2018-11-03T15:26:49.369Z,1.10
2018-11-03T15:29:18.078Z,1.93
2018-11-03T15:31:46.715Z,1.20
2018-11-03T15:34:15.359Z,1.10
2018-11-03T15:36:44.837Z,1.00
2018-11-03T15:39:13.410Z,1.60
2018-11-03T15:41:42.063Z,1.00
2018-11-03T15:44:10.555Z,1.23
2018-11-03T15:46:39.518Z,1.20
2018-11-03T15:49:08.068Z,0.87
2018-11-03T15:51:36.846Z,0.80
2018-11-03T15:54:05.453Z,1.33
2018-11-03T15:56:34.042Z,0.90
2018-11-03T15:59:02.524Z,0.80
2018-11-03T16:01:31.011Z,0.77
2018-11-03T16:03:59.668Z,1.10
2018-11-03T16:06:28.539Z,0.80
2018-11-03T16:08:57.263Z,0.87
2018-11-03T16:11:25.910Z,1.03
2018-11-03T16:13:54.639Z,0.63
2018-11-03T16:16:23.193Z,0.80
2018-11-03T16:18:51.735Z,0.90
2018-11-03T16:21:20.226Z,1.13
2018-11-03T16:23:48.721Z,0.83
2018-11-03T16:26:17.575Z,0.70
2018-11-03T16:28:46.047Z,0.93
2018-11-03T16:31:14.673Z,0.80
2018-11-03T16:33:43.206Z,0.83
2018-11-03T16:36:11.699Z,0.70
2018-11-03T16:38:40.218Z,0.50
2018-11-03T16:41:08.747Z,0.80
2018-11-03T16:43:37.590Z,1.10
2018-11-03T16:46:06.255Z,0.70
2018-11-03T16:48:34.923Z,0.90
2018-11-03T16:51:03.483Z,1.00
2018-11-03T16:53:31.989Z,1.17
2018-11-03T16:56:00.534Z,0.50
2018-11-03T16:58:29.048Z,0.97
2018-11-03T17:00:57.759Z,0.83
2018-11-03T17:03:26.338Z,0.90
2018-11-03T17:05:55.099Z,0.90
2018-11-03T17:08:23.571Z,0.80
2018-11-03T17:10:52.127Z,1.03
2018-11-03T17:13:20.600Z,1.13
2018-11-03T17:15:49.127Z,1.30
2018-11-03T17:18:17.770Z,1.50
2018-11-03T17:20:46.250Z,1.17
2018-11-03T17:23:14.830Z,1.37
2018-11-03T17:25:43.305Z,1.53
2018-11-03T17:28:11.895Z,1.60
2018-11-03T17:30:40.458Z,1.50
2018-11-03T17:33:08.952Z,1.20
2018-11-03T17:35:37.669Z,0.93
2018-11-03T17:38:06.679Z,0.80
2018-11-03T17:40:35.549Z,0.90
2018-11-03T17:43:04.100Z,1.10
2018-11-03T17:45:33.722Z,0.90
2018-11-03T17:48:02.319Z,1.00
2018-11-03T17:50:30.897Z,0.73
2018-11-03T17:52:59.542Z,1.20
2018-11-03T17:55:28.702Z,1.23
2018-11-03T17:57:57.562Z,0.90
2018-11-03T18:00:26.592Z,0.80
2018-11-03T18:02:55.410Z,1.20
2018-11-03T18:05:23.997Z,0.90
2018-11-03T18:07:53.162Z,0.93
2018-11-03T18:10:21.807Z,1.00
2018-11-03T18:12:52.624Z,1.27
2018-11-03T18:15:21.228Z,1.60
2018-11-03T18:17:49.804Z,1.40
2018-11-03T18:20:18.286Z,1.17
2018-11-03T18:22:46.893Z,0.80
2018-11-03T18:25:15.595Z,0.67
2018-11-03T18:27:44.710Z,0.90
2018-11-03T18:30:14.080Z,0.87
2018-11-03T18:32:43.170Z,0.73
2018-11-03T18:35:12.127Z,0.83
2018-11-03T18:37:40.647Z,0.73
2018-11-03T18:40:09.746Z,0.73
2018-11-03T18:42:38.480Z,1.00
2018-11-03T18:45:07.387Z,0.70
2018-11-03T18:47:36.051Z,0.50
2018-11-03T18:50:05.528Z,0.67
2018-11-03T18:52:34.167Z,0.87
2018-11-03T18:55:02.659Z,0.90
2018-11-03T18:57:31.529Z,0.97
2018-11-03T19:00:00.094Z,0.93
2018-11-03T19:02:28.817Z,0.47
2018-11-03T19:04:57.332Z,0.90
2018-11-03T19:07:25.867Z,1.13
2018-11-03T19:09:54.526Z,1.30
2018-11-03T19:12:23.056Z,1.20
2018-11-03T19:14:51.768Z,1.30
2018-11-03T19:17:20.356Z,0.70
2018-11-03T19:19:48.986Z,1.80
2018-11-03T19:22:17.543Z,0.70
2018-11-03T19:24:46.171Z,0.73
2018-11-03T19:27:14.652Z,0.80
2018-11-03T19:29:43.221Z,1.00
2018-11-03T19:32:12.189Z,0.80
2018-11-03T19:34:40.676Z,1.07
2018-11-03T19:37:13.032Z,0.73
2018-11-03T19:39:43.016Z,0.73
2018-11-03T19:42:14.631Z,1.03
2018-11-03T19:44:44.364Z,0.90
2018-11-03T19:47:12.839Z,0.90
2018-11-03T19:49:43.001Z,0.90
2018-11-03T19:52:11.595Z,0.70
2018-11-03T19:54:40.212Z,0.80
2018-11-03T19:57:08.802Z,1.03
2018-11-03T19:59:37.367Z,0.80
2018-11-03T20:02:07.975Z,0.80
2018-11-03T20:04:36.607Z,0.90
2018-11-03T20:07:05.691Z,0.80
2018-11-03T20:09:34.151Z,0.80
2018-11-03T20:12:02.833Z,0.60
2018-11-03T20:14:31.319Z,1.03
2018-11-03T20:16:59.810Z,0.90
2018-11-03T20:19:28.361Z,0.73
2018-11-03T20:21:56.883Z,0.60
2018-11-03T20:24:26.852Z,1.10
2018-11-03T20:26:57.163Z,1.00
2018-11-03T20:29:29.218Z,0.83
2018-11-03T20:31:58.272Z,0.87
2018-11-03T20:34:27.666Z,1.43
2018-11-03T20:37:06.670Z,0.98
2018-11-03T20:39:36.174Z,0.90
2018-11-03T20:42:06.879Z,0.80
2018-11-03T20:44:38.776Z,0.70
2018-11-03T20:47:09.270Z,1.00
2018-11-03T20:49:38.299Z,1.00
2018-11-03T20:52:09.328Z,1.27
2018-11-03T20:54:38.846Z,1.47
2018-11-03T20:57:10.531Z,0.80
2018-11-03T20:59:39.083Z,1.10
2018-11-03T21:02:08.126Z,1.07
2018-11-03T21:04:37.041Z,0.70
2018-11-03T21:07:06.684Z,1.20
2018-11-03T21:09:36.678Z,1.20
2018-11-03T21:12:05.767Z,1.30
2018-11-03T21:14:34.963Z,1.10
2018-11-03T21:17:06.579Z,1.00
2018-11-03T21:19:35.886Z,0.93
2018-11-03T21:22:08.251Z,1.07
2018-11-03T21:24:38.102Z,1.07
2018-11-03T21:27:10.812Z,1.00
2018-11-03T21:29:41.898Z,0.97
2018-11-03T21:32:12.913Z,1.20
2018-11-03T21:34:42.167Z,1.10
2018-11-03T21:37:12.891Z,1.07
2018-11-03T21:39:42.302Z,0.90
2018-11-03T21:42:11.631Z,1.20
2018-11-03T21:44:41.735Z,0.73
2018-11-03T21:47:11.962Z,1.07
2018-11-03T21:49:41.380Z,1.00
2018-11-03T21:52:11.361Z,1.00
2018-11-03T21:54:39.962Z,1.20
2018-11-03T21:57:08.931Z,1.27
2018-11-03T21:59:37.470Z,1.20
2018-11-03T22:02:06.718Z,1.30
2018-11-03T22:04:35.324Z,1.00
2018-11-03T22:07:04.123Z,1.00
2018-11-03T22:09:32.607Z,1.43
2018-11-03T22:12:01.212Z,1.37
2018-11-03T22:14:29.750Z,1.57
2018-11-03T22:16:58.322Z,1.13
2018-11-03T22:19:27.015Z,1.30
2018-11-03T22:21:55.810Z,1.40
2018-11-03T22:24:24.581Z,1.27
2018-11-03T22:26:53.171Z,1.50
2018-11-03T22:29:22.864Z,1.33
2018-11-03T22:31:51.461Z,1.40
2018-11-03T22:34:20.111Z,1.30
2018-11-03T22:36:48.706Z,1.53
2018-11-03T22:39:17.305Z,1.30
2018-11-03T22:41:46.100Z,1.30
2018-11-03T22:44:14.675Z,1.50
2018-11-03T22:46:43.472Z,1.60
2018-11-03T22:49:11.983Z,1.40
2018-11-03T22:51:41.085Z,1.40
2018-11-03T22:54:09.723Z,1.90
2018-11-03T22:56:38.304Z,2.17
2018-11-03T22:59:07.468Z,2.10
2018-11-03T23:01:35.992Z,2.23
2018-11-03T23:04:04.877Z,2.17
2018-11-03T23:06:33.438Z,1.80
2018-11-03T23:09:03.766Z,1.80
2018-11-03T23:11:32.276Z,2.40
2018-11-03T23:14:01.225Z,2.20
2018-11-03T23:16:29.736Z,1.90
2018-11-03T23:18:58.370Z,2.20
2018-11-03T23:21:27.179Z,2.33
2018-11-03T23:23:57.373Z,2.50
2018-11-03T23:26:26.963Z,2.40
2018-11-03T23:28:56.931Z,2.07
2018-11-03T23:31:25.575Z,2.17
2018-11-03T23:33:54.057Z,1.70
2018-11-03T23:36:22.742Z,2.03
2018-11-03T23:38:51.443Z,2.03
2018-11-03T23:41:20.549Z,2.37
2018-11-03T23:43:49.097Z,2.20
2018-11-03T23:46:18.009Z,2.00
2018-11-03T23:48:47.363Z,1.90
2018-11-03T23:51:16.190Z,1.60
2018-11-03T23:53:44.775Z,1.50
2018-11-03T23:56:14.887Z,1.93
2018-11-03T23:58:44.344Z,2.10
